sensor_id;sensor_type;location;lat;lon;timestamp;pressure;altitude;pressure_sealevel;temperature;humidity
71361;BME280;59166;48.908;1.870;2023-05-03T00:02:59;101210.63;;;11.69;74.91
71361;BME280;59166;48.908;1.870;2023-05-03T00:08:01;101219.84;;;11.68;74.31
71361;BME280;59166;48.908;1.870;2023-05-03T00:13:02;101206.03;;;11.53;75.47
71361;BME280;59166;48.908;1.870;2023-05-03T00:18:03;101214.31;;;11.46;75.27
71361;BME280;59166;48.908;1.870;2023-05-03T00:23:05;101223.41;;;11.40;75.20
71361;BME280;59166;48.908;1.870;2023-05-03T00:28:05;101223.06;;;11.36;75.53
71361;BME280;59166;48.908;1.870;2023-05-03T00:33:06;101221.56;;;11.29;76.42
71361;BME280;59166;48.908;1.870;2023-05-03T00:38:09;101216.47;;;11.16;76.92
71361;BME280;59166;48.908;1.870;2023-05-03T00:43:10;101206.84;;;11.08;77.34
71361;BME280;59166;48.908;1.870;2023-05-03T00:48:11;101206.56;;;10.93;78.53
71361;BME280;59166;48.908;1.870;2023-05-03T00:53:15;101208.59;;;10.86;79.26
71361;BME280;59166;48.908;1.870;2023-05-03T00:58:16;101204.84;;;10.75;78.21
71361;BME280;59166;48.908;1.870;2023-05-03T01:03:18;101211.19;;;10.69;78.07
71361;BME280;59166;48.908;1.870;2023-05-03T01:08:26;101214.59;;;10.65;78.10
71361;BME280;59166;48.908;1.870;2023-05-03T01:13:36;101216.72;;;10.63;78.22
71361;BME280;59166;48.908;1.870;2023-05-03T01:18:42;101213.91;;;10.58;78.10
71361;BME280;59166;48.908;1.870;2023-05-03T01:23:56;101225.66;;;10.52;78.29
71361;BME280;59166;48.908;1.870;2023-05-03T01:29:04;101216.38;;;10.48;78.92
71361;BME280;59166;48.908;1.870;2023-05-03T01:34:16;101207.00;;;10.39;79.10
71361;BME280;59166;48.908;1.870;2023-05-03T01:39:23;101202.19;;;10.41;77.78
71361;BME280;59166;48.908;1.870;2023-05-03T01:44:27;101194.94;;;10.29;78.13
71361;BME280;59166;48.908;1.870;2023-05-03T01:49:28;101197.03;;;10.27;77.03
71361;BME280;59166;48.908;1.870;2023-05-03T01:54:29;101205.63;;;10.24;77.10
71361;BME280;59166;48.908;1.870;2023-05-03T01:59:31;101214.41;;;10.20;77.45
71361;BME280;59166;48.908;1.870;2023-05-03T02:04:32;101213.00;;;10.17;77.02
71361;BME280;59166;48.908;1.870;2023-05-03T02:09:33;101207.72;;;10.11;77.66
71361;BME280;59166;48.908;1.870;2023-05-03T02:14:35;101206.56;;;10.07;78.29
71361;BME280;59166;48.908;1.870;2023-05-03T02:19:36;101202.34;;;9.88;80.38
71361;BME280;59166;48.908;1.870;2023-05-03T02:24:37;101201.72;;;9.74;81.62
71361;BME280;59166;48.908;1.870;2023-05-03T02:29:39;101208.84;;;9.57;82.31
71361;BME280;59166;48.908;1.870;2023-05-03T02:34:40;101197.09;;;9.40;83.86
71361;BME280;59166;48.908;1.870;2023-05-03T02:39:41;101195.28;;;9.22;85.63
71361;BME280;59166;48.908;1.870;2023-05-03T02:44:43;101200.75;;;9.15;85.20
71361;BME280;59166;48.908;1.870;2023-05-03T02:49:44;101198.03;;;9.04;85.66
71361;BME280;59166;48.908;1.870;2023-05-03T02:54:45;101193.41;;;8.93;86.47
71361;BME280;59166;48.908;1.870;2023-05-03T02:59:47;101183.31;;;8.88;86.12
71361;BME280;59166;48.908;1.870;2023-05-03T03:04:48;101189.22;;;8.97;85.21
71361;BME280;59166;48.908;1.870;2023-05-03T03:09:49;101174.53;;;8.93;85.12
71361;BME280;59166;48.908;1.870;2023-05-03T03:14:51;101170.50;;;8.83;86.62
71361;BME280;59166;48.908;1.870;2023-05-03T03:19:52;101168.56;;;8.72;86.02
71361;BME280;59166;48.908;1.870;2023-05-03T03:24:53;101163.84;;;8.68;87.60
71361;BME280;59166;48.908;1.870;2023-05-03T03:29:55;101156.75;;;8.55;88.38
71361;BME280;59166;48.908;1.870;2023-05-03T03:34:56;101148.31;;;8.52;87.70
71361;BME280;59166;48.908;1.870;2023-05-03T03:39:57;101144.13;;;8.56;87.59
71361;BME280;59166;48.908;1.870;2023-05-03T03:44:59;101146.69;;;8.51;87.81
71361;BME280;59166;48.908;1.870;2023-05-03T03:50:00;101154.81;;;8.44;88.51
71361;BME280;59166;48.908;1.870;2023-05-03T03:55:01;101148.03;;;8.42;87.85
71361;BME280;59166;48.908;1.870;2023-05-03T04:00:04;101152.22;;;8.38;88.36
71361;BME280;59166;48.908;1.870;2023-05-03T04:05:05;101136.59;;;8.28;88.27
71361;BME280;59166;48.908;1.870;2023-05-03T04:10:07;101134.59;;;8.23;88.59
71361;BME280;59166;48.908;1.870;2023-05-03T04:15:13;101133.59;;;8.18;89.17
71361;BME280;59166;48.908;1.870;2023-05-03T04:20:13;101140.06;;;8.17;88.52
71361;BME280;59166;48.908;1.870;2023-05-03T04:25:14;101139.31;;;8.10;89.39
71361;BME280;59166;48.908;1.870;2023-05-03T04:30:17;101131.44;;;8.08;89.16
71361;BME280;59166;48.908;1.870;2023-05-03T04:35:18;101135.78;;;8.09;88.18
71361;BME280;59166;48.908;1.870;2023-05-03T04:40:19;101129.91;;;7.94;90.58
71361;BME280;59166;48.908;1.870;2023-05-03T04:45:22;101128.34;;;7.87;90.67
71361;BME280;59166;48.908;1.870;2023-05-03T04:50:23;101132.47;;;7.89;90.61
71361;BME280;59166;48.908;1.870;2023-05-03T04:55:24;101125.31;;;7.83;92.08
71361;BME280;59166;48.908;1.870;2023-05-03T05:00:26;101127.38;;;7.81;91.28
71361;BME280;59166;48.908;1.870;2023-05-03T05:05:27;101138.63;;;7.71;92.33
71361;BME280;59166;48.908;1.870;2023-05-03T05:10:28;101147.59;;;7.65;93.85
71361;BME280;59166;48.908;1.870;2023-05-03T05:15:30;101140.50;;;7.71;92.34
71361;BME280;59166;48.908;1.870;2023-05-03T05:20:31;101141.16;;;7.66;92.90
71361;BME280;59166;48.908;1.870;2023-05-03T05:25:32;101147.75;;;7.70;92.29
71361;BME280;59166;48.908;1.870;2023-05-03T05:30:34;101152.09;;;7.71;92.06
71361;BME280;59166;48.908;1.870;2023-05-03T05:35:35;101153.75;;;7.72;92.31
71361;BME280;59166;48.908;1.870;2023-05-03T05:40:36;101147.53;;;7.72;92.89
71361;BME280;59166;48.908;1.870;2023-05-03T05:45:38;101155.69;;;7.84;93.31
71361;BME280;59166;48.908;1.870;2023-05-03T05:50:39;101159.06;;;7.97;91.50
71361;BME280;59166;48.908;1.870;2023-05-03T05:55:40;101158.34;;;8.08;92.47
71361;BME280;59166;48.908;1.870;2023-05-03T06:00:42;101155.50;;;8.21;92.71
71361;BME280;59166;48.908;1.870;2023-05-03T06:05:43;101169.88;;;8.34;92.85
71361;BME280;59166;48.908;1.870;2023-05-03T06:10:44;101172.03;;;8.43;91.07
71361;BME280;59166;48.908;1.870;2023-05-03T06:15:47;101171.50;;;8.53;91.11
71361;BME280;59166;48.908;1.870;2023-05-03T06:20:48;101174.72;;;8.61;90.83
71361;BME280;59166;48.908;1.870;2023-05-03T06:25:49;101159.66;;;8.72;90.15
71361;BME280;59166;48.908;1.870;2023-05-03T06:30:51;101165.25;;;8.89;90.05
71361;BME280;59166;48.908;1.870;2023-05-03T06:35:52;101153.63;;;9.06;88.34
71361;BME280;59166;48.908;1.870;2023-05-03T06:41:00;101149.06;;;9.18;87.97
71361;BME280;59166;48.908;1.870;2023-05-03T06:51:40;101145.53;;;9.71;83.66
71361;BME280;59166;48.908;1.870;2023-05-03T06:56:44;101140.63;;;9.91;82.76
71361;BME280;59166;48.908;1.870;2023-05-03T07:01:46;101137.66;;;10.16;80.93
71361;BME280;59166;48.908;1.870;2023-05-03T07:06:49;101146.81;;;10.26;80.00
71361;BME280;59166;48.908;1.870;2023-05-03T07:11:50;101144.28;;;10.48;79.46
71361;BME280;59166;48.908;1.870;2023-05-03T07:16:51;101122.16;;;10.63;78.20
71361;BME280;59166;48.908;1.870;2023-05-03T07:21:54;101126.81;;;10.79;77.61
71361;BME280;59166;48.908;1.870;2023-05-03T07:26:54;101118.84;;;11.01;76.64
71361;BME280;59166;48.908;1.870;2023-05-03T07:31:55;101120.09;;;11.26;77.09
71361;BME280;59166;48.908;1.870;2023-05-03T07:36:58;101120.69;;;11.45;74.03
71361;BME280;59166;48.908;1.870;2023-05-03T07:41:59;101120.19;;;11.65;74.71
71361;BME280;59166;48.908;1.870;2023-05-03T07:47:00;101117.16;;;11.78;73.67
71361;BME280;59166;48.908;1.870;2023-05-03T07:52:02;101107.75;;;12.02;73.19
71361;BME280;59166;48.908;1.870;2023-05-03T07:57:03;101110.59;;;12.12;72.04
71361;BME280;59166;48.908;1.870;2023-05-03T08:02:04;101108.97;;;12.33;70.92
71361;BME280;59166;48.908;1.870;2023-05-03T08:07:07;101108.75;;;12.56;74.87
71361;BME280;59166;48.908;1.870;2023-05-03T08:12:08;101087.81;;;12.78;69.83
71361;BME280;59166;48.908;1.870;2023-05-03T08:17:09;101092.06;;;13.28;68.55
71361;BME280;59166;48.908;1.870;2023-05-03T08:22:17;101097.06;;;13.73;68.64
71361;BME280;59166;48.908;1.870;2023-05-03T08:27:18;101094.16;;;13.84;65.09
71361;BME280;59166;48.908;1.870;2023-05-03T08:32:20;101090.50;;;14.11;65.72
71361;BME280;59166;48.908;1.870;2023-05-03T08:37:23;101083.59;;;14.45;64.62
71361;BME280;59166;48.908;1.870;2023-05-03T08:42:27;101087.00;;;15.28;60.49
71361;BME280;59166;48.908;1.870;2023-05-03T08:47:30;101077.69;;;15.74;58.86
71361;BME280;59166;48.908;1.870;2023-05-03T08:52:54;101085.56;;;15.96;58.27
71361;BME280;59166;48.908;1.870;2023-05-03T08:58:06;101081.25;;;16.59;57.36
71361;BME280;59166;48.908;1.870;2023-05-03T09:03:39;101082.16;;;16.88;55.31
71361;BME280;59166;48.908;1.870;2023-05-03T09:09:02;101072.41;;;17.21;54.96
71361;BME280;59166;48.908;1.870;2023-05-03T09:14:14;101068.56;;;17.56;55.43
71361;BME280;59166;48.908;1.870;2023-05-03T09:19:27;101058.19;;;17.77;50.77
71361;BME280;59166;48.908;1.870;2023-05-03T09:24:34;101063.66;;;17.77;50.33
71361;BME280;59166;48.908;1.870;2023-05-03T09:29:41;101052.31;;;18.17;51.01
71361;BME280;59166;48.908;1.870;2023-05-03T09:34:53;101055.06;;;17.65;48.36
71361;BME280;59166;48.908;1.870;2023-05-03T09:40:23;101055.19;;;17.78;50.67
71361;BME280;59166;48.908;1.870;2023-05-03T09:46:07;101054.97;;;17.75;50.41
71361;BME280;59166;48.908;1.870;2023-05-03T09:50:58;101048.44;;;17.94;49.08
71361;BME280;59166;48.908;1.870;2023-05-03T09:56:03;101040.16;;;17.52;49.16
71361;BME280;59166;48.908;1.870;2023-05-03T10:01:04;101039.16;;;17.95;48.80
71361;BME280;59166;48.908;1.870;2023-05-03T10:06:10;101022.28;;;17.65;50.11
71361;BME280;59166;48.908;1.870;2023-05-03T10:11:17;101031.78;;;18.20;52.59
71361;BME280;59166;48.908;1.870;2023-05-03T10:16:20;101024.72;;;18.37;52.30
71361;BME280;59166;48.908;1.870;2023-05-03T10:21:32;101019.16;;;18.24;50.61
71361;BME280;59166;48.908;1.870;2023-05-03T10:26:55;101012.00;;;18.46;49.90
71361;BME280;59166;48.908;1.870;2023-05-03T10:31:57;101003.00;;;18.78;49.97
71361;BME280;59166;48.908;1.870;2023-05-03T10:37:01;101000.38;;;18.73;47.15
71361;BME280;59166;48.908;1.870;2023-05-03T10:42:04;100993.03;;;19.20;53.87
71361;BME280;59166;48.908;1.870;2023-05-03T10:47:12;100988.81;;;19.27;47.40
71361;BME280;59166;48.908;1.870;2023-05-03T10:52:44;100978.75;;;19.23;46.01
71361;BME280;59166;48.908;1.870;2023-05-03T10:57:47;100968.03;;;19.67;49.61
71361;BME280;59166;48.908;1.870;2023-05-03T11:03:18;100956.66;;;19.74;45.05
71361;BME280;59166;48.908;1.870;2023-05-03T11:08:23;100957.06;;;19.94;44.67
71361;BME280;59166;48.908;1.870;2023-05-03T11:13:26;100946.22;;;20.03;45.53
71361;BME280;59166;48.908;1.870;2023-05-03T11:18:27;100947.72;;;20.09;44.34
71361;BME280;59166;48.908;1.870;2023-05-03T11:23:29;100928.84;;;20.43;43.60
71361;BME280;59166;48.908;1.870;2023-05-03T11:28:37;100918.34;;;20.23;44.00
71361;BME280;59166;48.908;1.870;2023-05-03T11:33:39;100921.56;;;20.25;44.69
71361;BME280;59166;48.908;1.870;2023-05-03T11:38:44;100910.34;;;20.58;45.34
71361;BME280;59166;48.908;1.870;2023-05-03T11:49:24;100901.88;;;20.45;44.54
71361;BME280;59166;48.908;1.870;2023-05-03T11:54:33;100898.25;;;20.59;43.38
71361;BME280;59166;48.908;1.870;2023-05-03T12:04:59;100883.69;;;21.03;43.88
71361;BME280;59166;48.908;1.870;2023-05-03T12:10:18;100872.59;;;21.08;42.28
71361;BME280;59166;48.908;1.870;2023-05-03T12:15:36;100877.06;;;21.43;43.89
71361;BME280;59166;48.908;1.870;2023-05-03T12:20:38;100876.41;;;21.37;41.80
71361;BME280;59166;48.908;1.870;2023-05-03T12:25:39;100864.31;;;21.38;42.71
71361;BME280;59166;48.908;1.870;2023-05-03T12:30:42;100856.25;;;21.59;44.19
71361;BME280;59166;48.908;1.870;2023-05-03T12:35:44;100845.66;;;21.83;43.86
71361;BME280;59166;48.908;1.870;2023-05-03T12:40:48;100840.56;;;21.51;41.00
71361;BME280;59166;48.908;1.870;2023-05-03T12:45:57;100835.72;;;21.48;42.67
71361;BME280;59166;48.908;1.870;2023-05-03T12:51:07;100826.03;;;21.68;43.85
71361;BME280;59166;48.908;1.870;2023-05-03T12:56:10;100830.75;;;21.76;43.29
71361;BME280;59166;48.908;1.870;2023-05-03T13:01:21;100814.25;;;21.84;42.89
71361;BME280;59166;48.908;1.870;2023-05-03T13:06:25;100812.31;;;21.76;41.32
71361;BME280;59166;48.908;1.870;2023-05-03T13:11:36;100791.91;;;21.86;43.56
71361;BME280;59166;48.908;1.870;2023-05-03T13:22:17;100786.72;;;22.36;41.41
71361;BME280;59166;48.908;1.870;2023-05-03T13:27:19;100783.28;;;22.56;43.48
71361;BME280;59166;48.908;1.870;2023-05-03T13:32:22;100771.13;;;22.48;43.16
71361;BME280;59166;48.908;1.870;2023-05-03T13:37:29;100768.38;;;22.40;41.37
71361;BME280;59166;48.908;1.870;2023-05-03T13:42:33;100763.59;;;22.11;41.17
71361;BME280;59166;48.908;1.870;2023-05-03T13:47:37;100764.88;;;22.22;41.77
71361;BME280;59166;48.908;1.870;2023-05-03T13:52:40;100764.84;;;22.39;40.49
71361;BME280;59166;48.908;1.870;2023-05-03T13:57:50;100758.03;;;22.45;43.49
71361;BME280;59166;48.908;1.870;2023-05-03T14:02:53;100742.00;;;22.39;41.74
71361;BME280;59166;48.908;1.870;2023-05-03T14:08:02;100740.53;;;22.41;42.36
71361;BME280;59166;48.908;1.870;2023-05-03T14:13:05;100733.38;;;22.58;40.39
71361;BME280;59166;48.908;1.870;2023-05-03T14:18:06;100717.97;;;22.65;39.73
71361;BME280;59166;48.908;1.870;2023-05-03T14:23:09;100713.41;;;22.69;42.44
71361;BME280;59166;48.908;1.870;2023-05-03T14:28:13;100719.56;;;23.04;41.50
71361;BME280;59166;48.908;1.870;2023-05-03T14:33:14;100713.84;;;23.09;38.72
71361;BME280;59166;48.908;1.870;2023-05-03T14:38:18;100702.22;;;23.04;38.82
71361;BME280;59166;48.908;1.870;2023-05-03T14:43:19;100697.97;;;23.06;39.58
71361;BME280;59166;48.908;1.870;2023-05-03T14:48:20;100694.00;;;22.66;39.31
71361;BME280;59166;48.908;1.870;2023-05-03T14:53:22;100676.03;;;22.60;39.31
71361;BME280;59166;48.908;1.870;2023-05-03T14:58:23;100684.47;;;22.84;39.15
71361;BME280;59166;48.908;1.870;2023-05-03T15:03:29;100680.41;;;22.90;39.85
71361;BME280;59166;48.908;1.870;2023-05-03T15:08:31;100673.50;;;23.34;41.30
71361;BME280;59166;48.908;1.870;2023-05-03T15:13:32;100670.47;;;23.18;38.32
71361;BME280;59166;48.908;1.870;2023-05-03T15:18:36;100674.69;;;22.95;39.11
71361;BME280;59166;48.908;1.870;2023-05-03T15:23:38;100673.34;;;23.01;39.38
71361;BME280;59166;48.908;1.870;2023-05-03T15:28:39;100675.63;;;23.28;38.58
71361;BME280;59166;48.908;1.870;2023-05-03T15:33:41;100655.31;;;23.54;38.49
71361;BME280;59166;48.908;1.870;2023-05-03T15:38:43;100652.25;;;23.34;39.70
71361;BME280;59166;48.908;1.870;2023-05-03T15:43:44;100659.31;;;23.15;38.67
71361;BME280;59166;48.908;1.870;2023-05-03T15:48:47;100644.50;;;23.28;39.29
71361;BME280;59166;48.908;1.870;2023-05-03T15:53:50;100647.91;;;23.45;40.89
71361;BME280;59166;48.908;1.870;2023-05-03T15:58:51;100644.88;;;23.59;39.14
71361;BME280;59166;48.908;1.870;2023-05-03T16:03:52;100643.16;;;23.34;37.72
71361;BME280;59166;48.908;1.870;2023-05-03T16:08:55;100633.41;;;23.36;36.88
71361;BME280;59166;48.908;1.870;2023-05-03T16:13:56;100628.69;;;23.37;36.39
71361;BME280;59166;48.908;1.870;2023-05-03T16:18:57;100639.50;;;23.42;35.72
71361;BME280;59166;48.908;1.870;2023-05-03T16:23:59;100629.94;;;23.27;34.45
71361;BME280;59166;48.908;1.870;2023-05-03T16:29:00;100625.31;;;23.31;36.42
71361;BME280;59166;48.908;1.870;2023-05-03T16:34:01;100613.75;;;23.17;35.27
71361;BME280;59166;48.908;1.870;2023-05-03T16:39:03;100620.19;;;23.21;36.56
71361;BME280;59166;48.908;1.870;2023-05-03T16:44:05;100616.97;;;23.19;36.46
71361;BME280;59166;48.908;1.870;2023-05-03T16:49:06;100606.31;;;22.97;35.46
71361;BME280;59166;48.908;1.870;2023-05-03T16:54:08;100612.78;;;22.72;35.28
71361;BME280;59166;48.908;1.870;2023-05-03T16:59:09;100605.84;;;22.66;36.40
71361;BME280;59166;48.908;1.870;2023-05-03T17:04:10;100600.81;;;22.68;37.99
71361;BME280;59166;48.908;1.870;2023-05-03T17:09:12;100591.19;;;22.44;35.66
71361;BME280;59166;48.908;1.870;2023-05-03T17:14:14;100586.97;;;22.18;36.50
71361;BME280;59166;48.908;1.870;2023-05-03T17:19:15;100585.50;;;22.20;36.99
71361;BME280;59166;48.908;1.870;2023-05-03T17:24:17;100573.34;;;22.21;37.17
71361;BME280;59166;48.908;1.870;2023-05-03T17:29:18;100564.50;;;22.16;37.97
71361;BME280;59166;48.908;1.870;2023-05-03T17:34:19;100562.78;;;22.03;38.44
71361;BME280;59166;48.908;1.870;2023-05-03T17:39:21;100561.88;;;21.64;39.18
71361;BME280;59166;48.908;1.870;2023-05-03T17:44:22;100564.66;;;21.56;38.90
71361;BME280;59166;48.908;1.870;2023-05-03T17:49:23;100559.69;;;21.32;40.29
71361;BME280;59166;48.908;1.870;2023-05-03T17:54:27;100557.78;;;21.07;41.22
71361;BME280;59166;48.908;1.870;2023-05-03T17:59:28;100561.13;;;20.78;41.79
71361;BME280;59166;48.908;1.870;2023-05-03T18:04:29;100549.16;;;20.65;42.10
71361;BME280;59166;48.908;1.870;2023-05-03T18:09:31;100556.78;;;20.20;43.25
71361;BME280;59166;48.908;1.870;2023-05-03T18:14:33;100550.53;;;19.89;44.40
71361;BME280;59166;48.908;1.870;2023-05-03T18:19:34;100554.19;;;19.76;45.33
71361;BME280;59166;48.908;1.870;2023-05-03T18:24:36;100558.31;;;19.65;45.53
71361;BME280;59166;48.908;1.870;2023-05-03T18:29:37;100557.09;;;19.48;45.15
71361;BME280;59166;48.908;1.870;2023-05-03T18:34:38;100561.94;;;19.29;46.20
71361;BME280;59166;48.908;1.870;2023-05-03T18:39:43;100553.53;;;19.26;46.67
71361;BME280;59166;48.908;1.870;2023-05-03T18:44:44;100563.44;;;19.13;47.24
71361;BME280;59166;48.908;1.870;2023-05-03T18:49:45;100566.06;;;18.82;46.09
71361;BME280;59166;48.908;1.870;2023-05-03T18:54:48;100562.88;;;18.67;46.30
71361;BME280;59166;48.908;1.870;2023-05-03T18:59:49;100552.25;;;18.52;46.41
71361;BME280;59166;48.908;1.870;2023-05-03T19:04:50;100557.94;;;18.41;46.81
71361;BME280;59166;48.908;1.870;2023-05-03T19:09:55;100553.09;;;18.25;47.74
71361;BME280;59166;48.908;1.870;2023-05-03T19:14:56;100552.69;;;18.18;48.01
71361;BME280;59166;48.908;1.870;2023-05-03T19:19:57;100562.47;;;18.05;47.95
71361;BME280;59166;48.908;1.870;2023-05-03T19:25:00;100562.44;;;17.78;49.34
71361;BME280;59166;48.908;1.870;2023-05-03T19:30:00;100556.69;;;17.66;50.22
71361;BME280;59166;48.908;1.870;2023-05-03T19:35:01;100570.19;;;17.57;53.40
71361;BME280;59166;48.908;1.870;2023-05-03T19:40:05;100569.28;;;17.48;55.83
71361;BME280;59166;48.908;1.870;2023-05-03T19:45:06;100570.44;;;17.28;57.74
71361;BME280;59166;48.908;1.870;2023-05-03T19:50:09;100565.56;;;17.25;58.56
71361;BME280;59166;48.908;1.870;2023-05-03T19:55:11;100566.00;;;17.14;59.84
71361;BME280;59166;48.908;1.870;2023-05-03T20:00:13;100569.25;;;16.97;60.81
71361;BME280;59166;48.908;1.870;2023-05-03T20:05:14;100572.06;;;16.73;61.98
71361;BME280;59166;48.908;1.870;2023-05-03T20:10:16;100565.41;;;16.61;63.02
71361;BME280;59166;48.908;1.870;2023-05-03T20:15:17;100570.47;;;16.49;63.99
71361;BME280;59166;48.908;1.870;2023-05-03T20:20:18;100565.59;;;16.45;63.98
71361;BME280;59166;48.908;1.870;2023-05-03T20:25:20;100559.41;;;16.40;64.59
71361;BME280;59166;48.908;1.870;2023-05-03T20:30:21;100550.50;;;16.34;64.28
71361;BME280;59166;48.908;1.870;2023-05-03T20:35:22;100547.59;;;16.26;64.31
71361;BME280;59166;48.908;1.870;2023-05-03T20:40:24;100532.19;;;16.16;64.78
71361;BME280;59166;48.908;1.870;2023-05-03T20:45:25;100527.31;;;16.13;64.40
71361;BME280;59166;48.908;1.870;2023-05-03T20:50:26;100533.59;;;16.14;64.69
71361;BME280;59166;48.908;1.870;2023-05-03T20:55:29;100520.25;;;16.12;64.44
71361;BME280;59166;48.908;1.870;2023-05-03T21:00:30;100505.63;;;16.03;64.86
71361;BME280;59166;48.908;1.870;2023-05-03T21:05:30;100508.34;;;16.03;64.77
71361;BME280;59166;48.908;1.870;2023-05-03T21:10:33;100505.16;;;15.96;64.45
71361;BME280;59166;48.908;1.870;2023-05-03T21:15:34;100502.53;;;15.86;65.11
71361;BME280;59166;48.908;1.870;2023-05-03T21:20:36;100502.78;;;15.89;64.91
71361;BME280;59166;48.908;1.870;2023-05-03T21:25:38;100509.97;;;15.80;65.38
71361;BME280;59166;48.908;1.870;2023-05-03T21:30:39;100505.44;;;15.71;65.67
71361;BME280;59166;48.908;1.870;2023-05-03T21:35:41;100494.53;;;15.71;65.46
71361;BME280;59166;48.908;1.870;2023-05-03T21:40:43;100481.50;;;15.68;65.13
71361;BME280;59166;48.908;1.870;2023-05-03T21:45:44;100463.91;;;15.60;65.13
71361;BME280;59166;48.908;1.870;2023-05-03T21:50:45;100467.47;;;15.56;65.09
71361;BME280;59166;48.908;1.870;2023-05-03T21:55:47;100479.19;;;15.56;64.36
71361;BME280;59166;48.908;1.870;2023-05-03T22:00:48;100472.63;;;15.57;63.58
71361;BME280;59166;48.908;1.870;2023-05-03T22:05:48;100462.63;;;15.53;63.44
71361;BME280;59166;48.908;1.870;2023-05-03T22:10:51;100454.97;;;15.55;63.03
71361;BME280;59166;48.908;1.870;2023-05-03T22:15:52;100448.22;;;15.47;63.76
71361;BME280;59166;48.908;1.870;2023-05-03T22:20:52;100437.69;;;15.40;63.58
71361;BME280;59166;48.908;1.870;2023-05-03T22:25:55;100437.78;;;15.30;63.88
71361;BME280;59166;48.908;1.870;2023-05-03T22:30:56;100439.44;;;15.31;63.65
71361;BME280;59166;48.908;1.870;2023-05-03T22:35:57;100432.59;;;15.34;62.85
71361;BME280;59166;48.908;1.870;2023-05-03T22:40:59;100444.34;;;15.29;63.12
71361;BME280;59166;48.908;1.870;2023-05-03T22:46:00;100448.78;;;15.20;64.69
71361;BME280;59166;48.908;1.870;2023-05-03T22:51:00;100448.78;;;15.20;63.53
71361;BME280;59166;48.908;1.870;2023-05-03T22:56:03;100446.13;;;15.15;63.74
71361;BME280;59166;48.908;1.870;2023-05-03T23:01:08;100430.66;;;15.11;64.04
71361;BME280;59166;48.908;1.870;2023-05-03T23:06:08;100438.91;;;15.01;64.60
71361;BME280;59166;48.908;1.870;2023-05-03T23:11:11;100431.81;;;15.05;63.72
71361;BME280;59166;48.908;1.870;2023-05-03T23:16:12;100432.97;;;14.93;64.37
71361;BME280;59166;48.908;1.870;2023-05-03T23:21:12;100429.22;;;14.89;64.15
71361;BME280;59166;48.908;1.870;2023-05-03T23:26:15;100430.31;;;14.83;64.43
71361;BME280;59166;48.908;1.870;2023-05-03T23:31:16;100426.25;;;14.86;64.11
71361;BME280;59166;48.908;1.870;2023-05-03T23:36:17;100412.44;;;14.77;64.81
71361;BME280;59166;48.908;1.870;2023-05-03T23:41:19;100404.56;;;14.76;64.26
71361;BME280;59166;48.908;1.870;2023-05-03T23:46:20;100389.69;;;14.68;64.40
71361;BME280;59166;48.908;1.870;2023-05-03T23:51:20;100379.06;;;14.67;63.87
71361;BME280;59166;48.908;1.870;2023-05-03T23:56:23;100362.75;;;14.67;63.90
